Extreme weather reports worldwide

Low visibility

Station
 
Location
 
Name
 
Wind
Knots
Gust
Knots
Vis
SM
Temp/Dew
C
Baro
inHg
METAR
 
OER ESNO Örnsköldsvik, SE Örnsköldsvik Airport 2 0.12 6/6 30.18 ESNO 262050Z AUTO 31002KT 0200 R12/0650N R30/1100D FG VV001 06/06 Q1022
YBX CYBX Lourdes-De-Blanc-Sablon, CA Lourdes de Blanc Sablon Airport 3 0.13 13/13 29.97 CYBX 262032Z 22003KT 1/8SM FG VV002 13/13 A2997 RMK FG8 SLP153
YPJ CYLA Aupaluk, CA Aupaluk Airport 5 0.13 5/5 29.82 CYLA 262000Z 02005KT 1/8SM FG VV002 05/05 A2982 RMK FG8 SLP102
LIMK 7 0.19 15/15 30.12 LIMK 261955Z 31007KT 0300 FG VV/// 15/15 Q1020 RMK VAL INVIS VIS MIN 0300
THN ESGT Trollhättan, SE Trollhättan-Vänersborg Airport 2 0.22 9/9 30.12 ESGT 262050Z AUTO 31002KT 0350 R15/1600N R33/P2000N FEW044/// OVC160/// 09/09 Q1020

Station
 
Location
 
Name
 
Wind
Knots
Gust
Knots
Vis
SM
Temp/Dew
C
Baro
inHg
METAR
 
WFK KFVE Frenchville, US Northern Aroostook Regional Airport 4 0.25 14/13 29.57 KFVE 262058Z AUTO 25004KT 1/4SM -RA FG FEW005 BKN009 OVC075 14/13 A2957 RMK AO2 P0000 T01440133
PIZ PPIZ Point Lay, US Point Lay LRRS Airport 6 0.25 -7/-8 29.78 PPIZ 262056Z AUTO 06006KT 1/4SM FZFG OVC002 M08/M08 A2978 RMK AO2 SLP088 6//// T10781083 58003 FZRANO PNO $
MRK KMKY Marco Island, US Marco Island Executive Airport 7 0.25 32/20 30.01 KMKY 262056Z AUTO 05007KT M1/4SM HZ SCT070 BKN090 32/21 A3001 RMK AO2 SLP163 6//// T03220206 55014 TSNO PNO $
KQEN 4 0.25 13/13 30.15 KQEN 262050Z AUTO 09004KT M0400 FG CLR 13/13 A3015 RMK A02 TSNO
VNT EVVA Ventspils, LV Ventspils International Airport 0 0.25 5/5 30.30 EVVA 262050Z AUTO 00000KT 0400 FG NSC 05/05 Q1026
YQC CYHA Quaqtaq, CA Quaqtaq Airport 19 26 0.25 3/3 29.89 CYHA 262000Z 11019G26KT 1/4SM -RA FG VV002 03/03 A2989 RMK FG8 PRESRR SLP125
HMV ESUT Hemavan, SE Hemavan Airport 3 0.28 5/5 30.06 ESUT 262050Z AUTO 35003KT 0450 R33/1500D FG BKN120/// 05/05 Q1018
PGX LFBX Périgueux/Bassillac, FR Périgueux-Bassillac Airport 1 0.34 15/14 30.12 LFBX 262030Z AUTO 10001KT 0550 R29/0500D FG VV/// 15/14 Q1020
JAD YPJT Perth, AU Perth Jandakot Airport 0 0.37 10/10 29.85 YPJT 262053Z AUTO 00000KT 0600 FG SCT018 10/10 Q1011 RF00.0/002.6
YKG CYAS Kangirsuk, CA Kangirsuk Airport 16 0.38 5/5 29.82 CYAS 262026Z 05016KT 3/8SM FG VV003 05/05 A2982 RMK FG8 SLP108
LIG LFBL Limoges/Bellegarde, FR Limoges Airport 0 0.4 15/14 30.12 LFBL 262030Z AUTO 00000KT 0650 0550 R21/1000U R03/0700N FG VV/// 15/14 Q1020 TEMPO 0400 FG
TNM SCRM Isla Rey Jorge, AQ Teniente Rodolfo Marsh Martin Base 31 0.5 0/0 29.11 SCRM 262100Z 30031KT 0800 FG OVC003 M00/M00 Q0986 NOSIG
RDB PADG Red Dog, US Red Dog Airport 5 0.5 0/0 29.70 PADG 262053Z 12005KT 1/2SM -SN FZFG BKN005 OVC011 00/M00 A2970
INV EGPE Inverness, GB Inverness Airport 6 0.5 12/12 29.53 EGPE 262050Z AUTO 23006KT 0800 +RA BKN003/// OVC016/// 12/12 Q1000 REDZ
LSI EGPB Lerwick, GB Sumburgh Airport 17 0.5 13/13 29.59 EGPB 262050Z AUTO 17017KT 0800 FG OVC002/// 13/13 Q1002
YYY CYYY Mont-Joli, CA Mont Joli Airport 6 0.5 12/12 29.57 CYYY 262042Z 26006KT 1/2SM R06/5500VP6000FT/D -RA FG VV002 12/12 A2957 RMK FG8 SLP017 DENSITY ALT 200FT
PKX ZBAD Beijing, CN Beijing Daxing International Airport 4 0.56 17/17 29.97 ZBAD 262030Z 33002MPS 0900 R17L/0450V0650D R17R/0800VP2000D R19R/P2000N R11L/P2000N FG VV005 17/17 Q1015 NOSIG
YHZ CYHZ Halifax, CA Halifax / Stanfield International Airport 13 24 0.63 20/20 29.61 CYHZ 262025Z 16013G24KT 5/8SM R23/P6000FT/D R14/P6000FT/N -SHRA BR OVC004 20/20 A2961 RMK ST8 VIS VRB 3/8-1 CVCTV CLD EMBD SLP028 DENSITY ALT 1600FT
KMBT Murfreesboro, US Murfreesboro Municipal Airport 4 0.75 27/11 30.07 KMBT 262055Z AUTO VRB04KT 3/4SM HZ VV005 27/11 A3007 RMK A01
YZS CYZS Coral Harbour, CA Coral Harbour Airport 12 0.75 4/3 29.64 CYZS 262052Z 10012KT 3/4SM -DZ BR OVC003 04/03 A2964 RMK ST8 SLP043
KQEV 0 0.75 18/15 30.01 KQEV 262050Z AUTO 00000KT 1200 HZ OVC110 18/15 A3001 RMK A02 TSNO
YYH CYYH Taloyoak, CA Taloyoak Airport 22 28 0.75 0/-1 29.71 CYYH 262038Z 08022G28KT 3/4SM -SN OVC008 00/M01 A2971 RMK SN6ST2 CIG RAG SLP065
YZV CYZV Sept-ÃŽles, CA Sept-ÃŽles Airport 18 29 0.75 14/14 29.60 CYZV 262030Z 09018G29KT 3/4SM R09/4500VP6000FT/U -RA BR OVC004 14/14 A2960 RMK FG6SF2 PRESFR SLP028 DENSITY ALT 500FT
LPP EFLP Lappeenranta, FI Lappeenranta Airport 1 0.81 3/3 30.30 EFLP 262050Z AUTO VRB01KT 1300 R24/P2000U BR NSC 03/03 Q1026
FRA EDDF Frankfurt am Main, DE Frankfurt am Main Airport 4 0.87 17/16 30.03 EDDF 262050Z 20004KT 160V230 1400 R25R/P2000N R25C/P2000N R25L/P2000N R18/1700D BCFG FEW001 BKN003 17/16 Q1017 NOSIG
DHA OEDR SA King Abdulaziz Air Base 12 0.93 31/3 29.62 OEDR 262100Z 31012KT 1500 BLDU NSC 31/03 Q1003 NOSIG
VRN LIPX Verona, IT Verona Villafranca Airport 4 0.93 16/16 30.06 LIPX 262050Z 22004KT 1500 BR FEW010 SCT070 16/16 Q1018
EVGA Lielvarde, LV Lielvarde Air Base 2 0.99 5/5 30.27 EVGA 262050Z AUTO 04002KT 1600 1400 BR FEW002/// 05/05 Q1025
SVL EFSA Savonlinna, FI Savonlinna Airport 1 0.99 1/1 30.30 EFSA 262050Z AUTO VRB01KT 1600 1300 R30/P2000D BR NCD 01/01 Q1026
UTI EFUT Utti / Valkeala, FI Utti Air Base 1 1.06 4/4 30.30 EFUT 262050Z AUTO VRB01KT 1700 BCFG NCD 04/04 Q1026
LSMA Alpnach, CH Alpnach Air Base 1 1.24 14/14 30.15 LSMA 262050Z AUTO VRB01KT 1000NDV R01/1000VP2000D R19/P2000N FEW100 14/14 Q1021 RMK
ENGC 42 1.24 14/14 29.70 ENGC 262050Z 18042KT 2000 DZ BR BKN003 14/14 Q1006 W12/S5
URE EEKE Kuressaare, EE Kuressaare Airport 4 1.24 5/5 30.30 EEKE 262050Z AUTO 03004KT 0450NDV R17/0600D R35/P2000N FG NCD 05/05 Q1026
LBU WBKL Labuan, MY Labuan Airport 0 1.24 24/23 29.73 WBKL 262000Z 00000KT 2000 +TSRA FEW008 FEW016CB SCT030 24/23 Q1007
KATP 13 1.25 27/24 30.02 KATP 262055Z AUTO 10013KT 1 1/4SM HZ SCT018 BKN023 BKN035 27/24 A3002 RMK A01 P0010
UUS UHSS Yuzhno-Sakhalinsk, RU Yuzhno-Sakhalinsk Airport 0 1.49 3/2 30.15 UHSS 262030Z 00000MPS 2400 0200N FG SCT006 03/02 Q1021 R01/70D NOSIG RMK MT OBSC QFE765/1020
WTK PAWN Noatak, US Noatak Airport 4 1.5 0/0 29.75 PAWN 262056Z AUTO 04004KT 1 1/2SM -SN BR OVC015 01/M01 A2975 RMK AO2 SLP086 P0001 60004 T00061006 56003 FZRANO
YCD CYCD Nanaimo, CA Nanaimo Airport 7 1.5 13/13 29.81 CYCD 262000Z 12007KT 100V160 1 1/2SM -RA BR OVC006 13/13 A2981 RMK SF8 CIG RAG SLP097
YBB CYBB Kugaaruk, CA Kugaaruk Airport 13 20 1.5 0/0 29.72 CYBB 262000Z 08013G20KT 1 1/2SM -SN BR OVC007 00/00 A2972 RMK SC8 SLP067
TYF ESST SE Torsby Airport 0 1.55 5/5 30.15 ESST 262050Z AUTO 00000KT 2500 BR NCD 05/05 Q1021
TSN ZBTJ Tianjin, CN Tianjin Binhai International Airport 6 1.55 19/19 29.97 ZBTJ 262030Z 36003MPS 2500 -RA BR BKN005 OVC033 19/19 Q1015 NOSIG
TRV VOTV Thiruvananthapuram, IN Trivandrum International Airport 10 25 1.55 26/25 29.70 VOTV 262030Z 25010G25KT 2500 -RA FEW008 SCT012 FEW025CB OVC080 26/25 Q1006 NOSIG
GAY VEGY IN Gaya Airport 0 1.55 25/25 29.68 VEGY 262000Z 00000KT 2500 BR FEW020 SCT100 25/25 Q1005
LIPS Istrana, IT Istrana Air Base 2 1.55 20/19 30.03 LIPS 261955Z 03002KT 2500 -RA BR BKN025 20/19 Q1017 RMK BKN VIS MIN 2500 WIND THR26 36003KT WIND THR08 35001KT BLK YLO
EBLB Bütgenbach, BE Elsenborn Air Base 5 1.74 13/13 30.06 EBLB 262033Z AUTO 20005KT 2800 BR BKN002/// 13/13 Q1018 AMB